createdAt,value
2022-11-30T00:10:21.205Z,98550
2022-11-30T00:22:21.285Z,98540
2022-11-30T00:34:21.198Z,98540
2022-11-30T00:46:21.348Z,98530
2022-11-30T00:58:21.190Z,98530
2022-11-30T01:10:21.195Z,98520
2022-11-30T01:22:21.210Z,98530
2022-11-30T01:34:21.301Z,98550
2022-11-30T01:46:21.234Z,98550
2022-11-30T01:58:21.308Z,98550
2022-11-30T02:10:21.314Z,98550
2022-11-30T02:22:21.301Z,98540
2022-11-30T02:34:21.257Z,98540
2022-11-30T02:46:21.394Z,98550
2022-11-30T02:58:21.726Z,98550
2022-11-30T03:10:21.206Z,98560
2022-11-30T03:22:21.196Z,98560
2022-11-30T03:34:21.194Z,98550
2022-11-30T03:46:21.304Z,98550
2022-11-30T03:58:21.217Z,98550
2022-11-30T04:10:21.245Z,98550
2022-11-30T04:22:21.320Z,98550
2022-11-30T04:34:21.221Z,98550
2022-11-30T04:46:21.380Z,98540
2022-11-30T04:58:21.250Z,98570
2022-11-30T05:10:21.215Z,98560
2022-11-30T05:22:21.279Z,98560
2022-11-30T05:34:21.249Z,98570
2022-11-30T05:46:21.262Z,98580
2022-11-30T05:58:21.301Z,98590
2022-11-30T06:10:21.254Z,98590
2022-11-30T06:22:21.199Z,98580
2022-11-30T06:34:21.280Z,98580
2022-11-30T06:46:21.303Z,98590
2022-11-30T06:58:21.189Z,98590
2022-11-30T07:10:21.248Z,98610
2022-11-30T07:22:21.200Z,98620
2022-11-30T07:34:21.308Z,98620
2022-11-30T07:46:21.259Z,98630
2022-11-30T07:58:21.259Z,98630
2022-11-30T08:10:21.287Z,98630
2022-11-30T08:22:21.310Z,98650
2022-11-30T08:34:21.307Z,98650
2022-11-30T08:46:49.070Z,98650
2022-11-30T08:58:21.197Z,98670
2022-11-30T09:10:21.299Z,98660
2022-11-30T09:22:21.194Z,98680
2022-11-30T09:34:21.260Z,98670
2022-11-30T09:46:21.253Z,98670
2022-11-30T09:58:21.270Z,98670
2022-11-30T10:10:32.225Z,98690
2022-11-30T10:22:21.274Z,98680
2022-11-30T10:34:21.336Z,98670
2022-11-30T10:46:21.300Z,98660
2022-11-30T10:58:21.257Z,98660
2022-11-30T11:10:21.205Z,98660
2022-11-30T11:22:21.286Z,98650
2022-11-30T11:34:21.288Z,98660
2022-11-30T11:46:21.352Z,98660
2022-11-30T11:58:21.256Z,98660
2022-11-30T12:10:50.460Z,98670
2022-11-30T12:22:21.271Z,98660
2022-11-30T12:34:21.205Z,98660
2022-11-30T12:46:21.256Z,98660
2022-11-30T12:58:21.320Z,98670
2022-11-30T13:10:21.294Z,98660
2022-11-30T13:22:21.205Z,98670
2022-11-30T13:34:21.208Z,98660
2022-11-30T13:46:21.246Z,98670
2022-11-30T13:58:21.296Z,98670
2022-11-30T14:10:21.274Z,98670
2022-11-30T14:22:21.282Z,98670
2022-11-30T14:34:21.199Z,98670
2022-11-30T14:46:21.291Z,98670
2022-11-30T14:58:21.255Z,98690
2022-11-30T15:10:26.514Z,98680
2022-11-30T15:22:21.198Z,98690
2022-11-30T15:34:21.305Z,98690
2022-11-30T15:46:21.342Z,98690
2022-11-30T15:58:21.309Z,98700
2022-11-30T16:10:21.244Z,98700
2022-11-30T16:22:21.198Z,98700
2022-11-30T16:34:21.205Z,98710
2022-11-30T16:46:21.348Z,98710
2022-11-30T16:58:21.196Z,98730
2022-11-30T17:10:21.192Z,98740
2022-11-30T17:22:21.297Z,98740
2022-11-30T17:34:21.204Z,98730
2022-11-30T17:46:21.387Z,98760
2022-11-30T17:58:21.200Z,98760
2022-11-30T18:10:21.208Z,98770
2022-11-30T18:22:21.200Z,98760
2022-11-30T18:34:21.303Z,98780
2022-11-30T18:46:21.325Z,98780
2022-11-30T18:58:21.308Z,98780
2022-11-30T19:10:21.311Z,98800
2022-11-30T19:22:21.205Z,98800
2022-11-30T19:34:21.250Z,98800
2022-11-30T19:46:21.478Z,98800
2022-11-30T19:58:21.250Z,98800
2022-11-30T20:10:21.234Z,98810
2022-11-30T20:22:21.645Z,98810
2022-11-30T20:34:21.226Z,98820
2022-11-30T20:46:21.283Z,98820
2022-11-30T20:58:21.275Z,98810
2022-11-30T21:10:21.278Z,98810
2022-11-30T21:22:21.305Z,98810
2022-11-30T21:34:21.525Z,98810
2022-11-30T21:46:21.332Z,98820
2022-11-30T21:58:21.559Z,98810
2022-11-30T22:10:21.221Z,98820
2022-11-30T22:22:21.481Z,98820
2022-11-30T22:34:21.477Z,98820
2022-11-30T22:46:21.321Z,98820
2022-11-30T22:58:21.541Z,98830
2022-11-30T23:10:21.437Z,98810
2022-11-30T23:22:21.559Z,98810
2022-11-30T23:34:21.247Z,98810
2022-11-30T23:46:21.633Z,98810
2022-11-30T23:58:21.532Z,98820
